createdAt,value
2019-03-29T00:00:24.942Z,103193.64
2019-03-29T00:00:53.996Z,103190.51
2019-03-29T00:01:18.693Z,103200.51
2019-03-29T00:01:43.360Z,103191.08
2019-03-29T00:02:09.043Z,103197.88
2019-03-29T00:02:33.655Z,103191.08
2019-03-29T00:02:58.308Z,103187.95
2019-03-29T00:03:23.003Z,103192.50
2019-03-29T00:03:47.662Z,103189.31
2019-03-29T00:04:12.288Z,103196.11
2019-03-29T00:04:36.912Z,103186.17
2019-03-29T00:05:01.586Z,103189.37
2019-03-29T00:05:26.262Z,103191.62
2019-03-29T00:05:51.156Z,103189.37
2019-03-29T00:06:15.812Z,103187.53
2019-03-29T00:06:40.433Z,103187.53
2019-03-29T00:07:05.312Z,103188.90
2019-03-29T00:07:39.357Z,103189.88
2019-03-29T00:07:56.249Z,103190.36
2019-03-29T00:08:20.972Z,103186.27
2019-03-29T00:08:45.596Z,103192.19
2019-03-29T00:09:10.213Z,103185.39
2019-03-29T00:09:34.864Z,103184.98
2019-03-29T00:09:59.497Z,103189.06
2019-03-29T00:10:24.419Z,103191.78
2019-03-29T00:10:49.062Z,103191.00
2019-03-29T00:11:13.682Z,103194.09
2019-03-29T00:11:38.929Z,103188.75
2019-03-29T00:12:04.886Z,103190.11
2019-03-29T00:12:30.924Z,103191.47
2019-03-29T00:12:57.020Z,103192.89
2019-03-29T00:13:23.016Z,103193.37
2019-03-29T00:13:47.745Z,103196.98
2019-03-29T00:14:12.394Z,103195.61
2019-03-29T00:14:37.014Z,103196.09
2019-03-29T00:15:01.668Z,103196.19
2019-03-29T00:15:26.323Z,103197.45
2019-03-29T00:15:50.946Z,103192.55
2019-03-29T00:16:15.564Z,103189.39
2019-03-29T00:16:40.205Z,103195.33
2019-03-29T00:17:04.843Z,103196.22
2019-03-29T00:17:29.528Z,103193.50
2019-03-29T00:17:54.187Z,103188.05
2019-03-29T00:18:18.807Z,103191.66
2019-03-29T00:18:43.442Z,103191.25
2019-03-29T00:19:08.067Z,103189.89
2019-03-29T00:19:32.659Z,103192.61
2019-03-29T00:19:57.297Z,103190.84
2019-03-29T00:20:21.934Z,103192.20
2019-03-29T00:20:47.279Z,103192.20
2019-03-29T00:21:13.015Z,103192.67
2019-03-29T00:21:39.083Z,103189.10
2019-03-29T00:22:04.946Z,103194.92
2019-03-29T00:22:30.331Z,103195.91
2019-03-29T00:22:56.322Z,103193.19
2019-03-29T00:23:22.393Z,103190.46
2019-03-29T00:23:49.023Z,103186.86
2019-03-29T00:24:14.954Z,103187.33
2019-03-29T00:24:40.426Z,103186.03
2019-03-29T00:25:07.006Z,103186.92
2019-03-29T00:25:33.055Z,103188.28
2019-03-29T00:25:58.339Z,103183.78
2019-03-29T00:26:23.699Z,103181.06
2019-03-29T00:26:48.328Z,103184.77
2019-03-29T00:27:13.583Z,103180.75
2019-03-29T00:27:38.250Z,103188.44
2019-03-29T00:28:02.923Z,103182.59
2019-03-29T00:28:27.535Z,103181.23
2019-03-29T00:28:52.168Z,103182.17
2019-03-29T00:29:16.793Z,103183.63
2019-03-29T00:29:41.429Z,103184.52
2019-03-29T00:30:06.084Z,103184.52
2019-03-29T00:30:30.695Z,103184.52
2019-03-29T00:30:55.323Z,103181.39
2019-03-29T00:31:19.988Z,103178.67
2019-03-29T00:31:44.620Z,103182.34
2019-03-29T00:32:09.249Z,103180.56
2019-03-29T00:32:33.863Z,103179.20
2019-03-29T00:32:58.513Z,103177.37
2019-03-29T00:33:23.945Z,103180.56
2019-03-29T00:33:49.390Z,103176.48
2019-03-29T00:34:15.898Z,103178.35
2019-03-29T00:34:41.916Z,103175.22
2019-03-29T00:35:08.086Z,103172.56
2019-03-29T00:35:34.015Z,103178.42
2019-03-29T00:35:59.876Z,103172.56
2019-03-29T00:36:25.873Z,103171.20
2019-03-29T00:36:51.867Z,103172.56
2019-03-29T00:37:17.904Z,103176.64
2019-03-29T00:37:52.957Z,103177.59
2019-03-29T00:38:09.017Z,103176.23
2019-03-29T00:38:34.020Z,103177.59
2019-03-29T00:38:58.666Z,103175.85
2019-03-29T00:39:23.341Z,103175.85
2019-03-29T00:39:47.937Z,103170.00
2019-03-29T00:40:13.617Z,103176.80
2019-03-29T00:40:38.220Z,103173.67
2019-03-29T00:41:02.839Z,103173.27
2019-03-29T00:41:29.171Z,103171.42
2019-03-29T00:41:53.781Z,103175.60
2019-03-29T00:42:18.416Z,103173.83
2019-03-29T00:42:43.138Z,103173.36
2019-03-29T00:43:08.999Z,103173.36
2019-03-29T00:43:34.292Z,103167.98
2019-03-29T00:44:00.956Z,103168.45
2019-03-29T00:44:26.249Z,103177.50
2019-03-29T00:44:52.786Z,103168.96
2019-03-29T00:45:18.990Z,103166.24
2019-03-29T00:45:43.756Z,103163.58
2019-03-29T00:46:08.385Z,103167.66
2019-03-29T00:46:33.115Z,103162.70
2019-03-29T00:46:57.735Z,103167.66
2019-03-29T00:47:22.451Z,103173.58
2019-03-29T00:47:47.058Z,103168.61
2019-03-29T00:48:11.694Z,103168.20
2019-03-29T00:48:36.352Z,103165.98
2019-03-29T00:49:01.007Z,103162.76
2019-03-29T00:49:25.607Z,103166.84
2019-03-29T00:49:50.292Z,103160.92
2019-03-29T00:50:15.031Z,103164.63
2019-03-29T00:50:39.643Z,103165.98
2019-03-29T00:51:04.331Z,103163.74
2019-03-29T00:51:29.063Z,103164.22
2019-03-29T00:51:53.731Z,103170.06
2019-03-29T00:52:18.393Z,103164.22
2019-03-29T00:52:44.964Z,103163.33
2019-03-29T00:53:10.018Z,103162.45
2019-03-29T00:53:35.790Z,103169.25
2019-03-29T00:54:01.912Z,103162.45
2019-03-29T00:54:28.021Z,103162.13
2019-03-29T00:54:52.967Z,103161.66
2019-03-29T00:55:17.616Z,103165.73
2019-03-29T00:55:42.239Z,103161.24
2019-03-29T00:56:07.291Z,103160.36
2019-03-29T00:56:32.033Z,103159.47
2019-03-29T00:56:56.935Z,103159.06
2019-03-29T00:57:21.567Z,103158.17
2019-03-29T00:57:46.196Z,103157.32
2019-03-29T00:58:10.843Z,103161.40
2019-03-29T00:58:35.576Z,103166.84
2019-03-29T00:59:00.309Z,103163.61
2019-03-29T00:59:24.927Z,103160.42
2019-03-29T00:59:49.559Z,103158.69
2019-03-29T01:00:14.235Z,103163.23
2019-03-29T01:00:38.867Z,103163.71
2019-03-29T01:01:03.607Z,103159.63
2019-03-29T01:01:28.233Z,103151.47
2019-03-29T01:01:53.079Z,103160.58
2019-03-29T01:02:18.940Z,103155.14
2019-03-29T01:02:44.189Z,103153.78
2019-03-29T01:03:10.897Z,103160.10
2019-03-29T01:03:37.018Z,103156.97
2019-03-29T01:04:02.969Z,103161.52
2019-03-29T01:04:28.978Z,103158.80
2019-03-29T01:04:54.865Z,103157.45
2019-03-29T01:05:20.235Z,103162.41
2019-03-29T01:05:46.869Z,103159.79
2019-03-29T01:06:12.910Z,103158.43
2019-03-29T01:06:39.127Z,103162.98
2019-03-29T01:07:04.830Z,103158.91
2019-03-29T01:07:30.213Z,103160.73
2019-03-29T01:08:07.228Z,103157.60
2019-03-29T01:08:22.093Z,103154.41
2019-03-29T01:08:46.780Z,103163.04
2019-03-29T01:09:11.419Z,103158.55
2019-03-29T01:09:36.059Z,103155.83
2019-03-29T01:10:00.712Z,103156.30
2019-03-29T01:10:25.347Z,103151.84
2019-03-29T01:10:50.569Z,103152.73
2019-03-29T01:11:15.196Z,103154.56
2019-03-29T01:11:40.941Z,103156.41
2019-03-29T01:12:06.262Z,103149.60
2019-03-29T01:12:32.255Z,103151.38
2019-03-29T01:12:58.870Z,103149.19
2019-03-29T01:13:24.216Z,103143.75
2019-03-29T01:13:50.847Z,103145.59
2019-03-29T01:14:16.271Z,103148.30
2019-03-29T01:14:42.257Z,103146.47
2019-03-29T01:15:09.131Z,103150.55
2019-03-29T01:15:34.135Z,103146.06
2019-03-29T01:15:58.812Z,103144.70
2019-03-29T01:16:23.460Z,103147.42
2019-03-29T01:16:48.088Z,103140.24
2019-03-29T01:17:12.820Z,103142.08
2019-03-29T01:17:37.511Z,103142.96
2019-03-29T01:18:02.154Z,103143.44
2019-03-29T01:18:26.753Z,103137.58
2019-03-29T01:18:51.383Z,103143.09
2019-03-29T01:19:16.065Z,103139.42
2019-03-29T01:19:40.726Z,103140.36
2019-03-29T01:20:08.462Z,103139.01
2019-03-29T01:20:33.154Z,103134.92
2019-03-29T01:20:57.835Z,103139.52
2019-03-29T01:21:22.448Z,103135.44
2019-03-29T01:21:47.096Z,103134.14
2019-03-29T01:22:12.876Z,103135.91
2019-03-29T01:22:37.641Z,103137.74
2019-03-29T01:23:02.272Z,103135.50
2019-03-29T01:23:26.991Z,103136.86
2019-03-29T01:23:51.636Z,103139.98
2019-03-29T01:24:16.253Z,103137.27
2019-03-29T01:24:41.450Z,103131.01
2019-03-29T01:25:08.292Z,103133.66
2019-03-29T01:25:33.262Z,103132.30
2019-03-29T01:25:57.875Z,103134.14
2019-03-29T01:26:22.574Z,103136.86
2019-03-29T01:26:47.191Z,103133.25
2019-03-29T01:27:12.934Z,103134.14
2019-03-29T01:27:37.546Z,103136.38
2019-03-29T01:28:02.216Z,103128.70
2019-03-29T01:28:26.871Z,103135.50
2019-03-29T01:28:51.768Z,103130.06
2019-03-29T01:29:16.390Z,103131.42
2019-03-29T01:29:41.066Z,103131.01
2019-03-29T01:30:06.892Z,103135.08
2019-03-29T01:30:31.512Z,103130.59
2019-03-29T01:30:56.135Z,103130.59
2019-03-29T01:31:20.754Z,103133.31
2019-03-29T01:31:45.404Z,103130.69
2019-03-29T01:32:10.032Z,103128.86
2019-03-29T01:32:34.652Z,103130.22
2019-03-29T01:32:59.292Z,103126.67
2019-03-29T01:33:24.302Z,103130.75
2019-03-29T01:33:50.906Z,103129.39
2019-03-29T01:34:17.001Z,103120.92
2019-03-29T01:34:42.960Z,103125.88
2019-03-29T01:35:09.138Z,103125.47
2019-03-29T01:35:33.948Z,103127.30
2019-03-29T01:35:58.606Z,103126.89
2019-03-29T01:36:23.230Z,103133.78
2019-03-29T01:36:47.862Z,103128.34
2019-03-29T01:37:12.886Z,103131.53
2019-03-29T01:37:37.672Z,103127.94
2019-03-29T01:38:02.430Z,103124.39
2019-03-29T01:38:27.090Z,103125.34
2019-03-29T01:38:51.936Z,103126.28
2019-03-29T01:39:17.006Z,103131.25
2019-03-29T01:39:42.888Z,103122.27
2019-03-29T01:40:08.942Z,103125.87
2019-03-29T01:40:35.048Z,103121.41
2019-03-29T01:41:00.993Z,103128.69
2019-03-29T01:41:26.937Z,103122.36
2019-03-29T01:41:52.951Z,103126.02
2019-03-29T01:42:18.881Z,103124.67
2019-03-29T01:42:44.905Z,103122.01
2019-03-29T01:43:10.088Z,103120.17
2019-03-29T01:43:35.269Z,103124.25
2019-03-29T01:44:01.868Z,103124.34
2019-03-29T01:44:27.913Z,103122.52
2019-03-29T01:44:53.232Z,103118.97
2019-03-29T01:45:19.349Z,103122.58
2019-03-29T01:45:45.297Z,103119.44
2019-03-29T01:46:11.908Z,103120.39
2019-03-29T01:46:37.934Z,103118.18
2019-03-29T01:47:03.882Z,103124.15
2019-03-29T01:47:29.926Z,103116.94
2019-03-29T01:47:55.384Z,103122.38
2019-03-29T01:48:20.742Z,103121.02
2019-03-29T01:48:45.385Z,103119.28
2019-03-29T01:49:10.008Z,103122.84
2019-03-29T01:49:34.694Z,103120.64
2019-03-29T01:49:59.340Z,103122.94
2019-03-29T01:50:23.960Z,103117.09
2019-03-29T01:50:48.609Z,103117.56
2019-03-29T01:51:13.231Z,103123.42
2019-03-29T01:51:37.872Z,103115.32
2019-03-29T01:52:02.483Z,103120.76
2019-03-29T01:52:56.991Z,103114.70
2019-03-29T01:53:21.812Z,103114.94
2019-03-29T01:53:46.462Z,103116.30
2019-03-29T01:54:11.132Z,103115.89
2019-03-29T01:54:35.752Z,103113.23
2019-03-29T01:55:00.478Z,103121.33
2019-03-29T01:55:25.094Z,103115.06
2019-03-29T01:55:49.728Z,103113.33
2019-03-29T01:56:14.962Z,103116.92
2019-03-29T01:56:40.235Z,103115.63
2019-03-29T01:57:06.290Z,103112.91
2019-03-29T01:57:32.246Z,103112.44
2019-03-29T01:57:58.936Z,103111.14
2019-03-29T01:58:25.008Z,103109.78
2019-03-29T01:58:50.319Z,103110.73
2019-03-29T01:59:16.972Z,103110.82
2019-03-29T01:59:42.331Z,103115.78
2019-03-29T02:00:09.141Z,103111.29
2019-03-29T02:00:35.337Z,103115.37
2019-03-29T02:01:00.615Z,103114.01
2019-03-29T02:01:25.300Z,103109.99
2019-03-29T02:01:49.942Z,103113.18
2019-03-29T02:02:14.689Z,103104.66
2019-03-29T02:02:39.307Z,103109.26
2019-03-29T02:03:04.061Z,103109.73
2019-03-29T02:03:28.823Z,103110.20
2019-03-29T02:03:53.815Z,103104.77
2019-03-29T02:04:18.467Z,103102.05
2019-03-29T02:04:43.103Z,103100.70
2019-03-29T02:05:07.735Z,103103.41
2019-03-29T02:05:32.399Z,103109.35
2019-03-29T02:05:57.023Z,103100.31
2019-03-29T02:06:21.728Z,103104.77
2019-03-29T02:06:46.338Z,103103.92
2019-03-29T02:07:11.389Z,103107.11
2019-03-29T02:07:38.076Z,103103.03
2019-03-29T02:08:02.863Z,103107.58
2019-03-29T02:08:35.653Z,103103.03
2019-03-29T02:08:53.825Z,103103.51
2019-03-29T02:09:18.495Z,103101.27
2019-03-29T02:09:43.114Z,103102.62
2019-03-29T02:10:10.431Z,103103.09
2019-03-29T02:10:35.082Z,103099.48
2019-03-29T02:10:59.690Z,103102.20
2019-03-29T02:11:24.314Z,103103.56
2019-03-29T02:11:48.937Z,103103.16
2019-03-29T02:12:13.567Z,103103.16
2019-03-29T02:12:38.222Z,103101.41
2019-03-29T02:13:02.831Z,103109.14
2019-03-29T02:13:27.485Z,103102.36
2019-03-29T02:13:52.226Z,103100.11
2019-03-29T02:14:17.869Z,103096.51
2019-03-29T02:14:42.591Z,103100.67
2019-03-29T02:15:10.297Z,103105.64
2019-03-29T02:15:35.020Z,103101.56
2019-03-29T02:15:59.629Z,103104.28
2019-03-29T02:16:24.298Z,103102.51
2019-03-29T02:16:48.935Z,103099.31
2019-03-29T02:17:13.599Z,103101.15
2019-03-29T02:17:38.353Z,103099.79
2019-03-29T02:18:03.006Z,103095.30
2019-03-29T02:18:27.694Z,103095.30
2019-03-29T02:18:52.313Z,103095.30
2019-03-29T02:19:16.933Z,103092.17
2019-03-29T02:19:41.557Z,103096.25
2019-03-29T02:20:07.182Z,103091.80
2019-03-29T02:20:31.834Z,103094.51
2019-03-29T02:20:56.537Z,103094.09
2019-03-29T02:21:21.239Z,103094.51
2019-03-29T02:21:46.407Z,103099.53
2019-03-29T02:22:11.039Z,103099.05
2019-03-29T02:22:36.957Z,103092.80
2019-03-29T02:23:01.868Z,103094.63
2019-03-29T02:23:26.475Z,103097.34
2019-03-29T02:23:51.191Z,103099.17
2019-03-29T02:24:15.816Z,103095.61
2019-03-29T02:24:40.452Z,103092.47
2019-03-29T02:25:06.423Z,103095.66
2019-03-29T02:25:31.080Z,103089.34
2019-03-29T02:25:55.714Z,103091.59
2019-03-29T02:26:20.387Z,103092.06
2019-03-29T02:26:45.033Z,103090.23
2019-03-29T02:27:09.709Z,103096.61
2019-03-29T02:27:34.335Z,103088.45
2019-03-29T02:27:58.961Z,103089.81
2019-03-29T02:28:23.601Z,103091.27
2019-03-29T02:28:48.220Z,103092.12
2019-03-29T02:29:13.236Z,103092.12
2019-03-29T02:29:37.877Z,103089.91
2019-03-29T02:30:04.219Z,103091.17
2019-03-29T02:30:28.804Z,103089.91
2019-03-29T02:30:53.483Z,103089.41
2019-03-29T02:31:18.112Z,103084.95
2019-03-29T02:31:42.932Z,103086.69
2019-03-29T02:32:07.679Z,103083.13
2019-03-29T02:32:32.310Z,103087.19
2019-03-29T02:32:56.942Z,103088.55
2019-03-29T02:33:21.571Z,103080.87
2019-03-29T02:33:46.194Z,103084.06
2019-03-29T02:34:10.832Z,103090.85
2019-03-29T02:34:35.482Z,103086.78
2019-03-29T02:35:00.421Z,103085.01
2019-03-29T02:35:25.158Z,103083.65
2019-03-29T02:35:49.791Z,103081.41
2019-03-29T02:36:14.498Z,103077.80
2019-03-29T02:36:39.112Z,103080.99
2019-03-29T02:37:03.726Z,103082.34
2019-03-29T02:37:29.472Z,103084.13
2019-03-29T02:37:54.279Z,103081.50
2019-03-29T02:38:18.953Z,103082.44
2019-03-29T02:38:55.217Z,103078.37
2019-03-29T02:39:10.009Z,103079.73
2019-03-29T02:39:34.630Z,103081.08
2019-03-29T02:39:59.253Z,103083.39
2019-03-29T02:40:23.965Z,103087.05
2019-03-29T02:40:50.725Z,103086.09
2019-03-29T02:41:14.956Z,103081.61
2019-03-29T02:41:39.620Z,103082.59
2019-03-29T02:42:04.307Z,103086.66
2019-03-29T02:42:28.938Z,103083.44
2019-03-29T02:42:53.594Z,103084.80
2019-03-29T02:43:18.238Z,103080.81
2019-03-29T02:43:42.897Z,103088.97
2019-03-29T02:44:07.967Z,103083.53
2019-03-29T02:44:34.842Z,103081.29
2019-03-29T02:44:59.176Z,103079.93
2019-03-29T02:45:23.817Z,103080.87
2019-03-29T02:45:49.419Z,103080.87
2019-03-29T02:46:14.029Z,103080.87
2019-03-29T02:46:38.748Z,103080.41
2019-03-29T02:47:03.437Z,103082.70
2019-03-29T02:47:28.087Z,103086.40
2019-03-29T02:47:53.106Z,103085.04
2019-03-29T02:48:17.743Z,103079.61
2019-03-29T02:48:42.354Z,103081.44
2019-03-29T02:49:07.031Z,103082.86
2019-03-29T02:49:31.821Z,103080.14
2019-03-29T02:49:56.541Z,103081.08
2019-03-29T02:50:21.208Z,103081.02
2019-03-29T02:50:45.817Z,103081.08
2019-03-29T02:51:10.458Z,103082.44
2019-03-29T02:51:35.080Z,103087.45
2019-03-29T02:51:59.772Z,103082.95
2019-03-29T02:52:24.394Z,103082.02
2019-03-29T02:52:49.015Z,103081.61
2019-03-29T02:53:13.689Z,103080.25
2019-03-29T02:53:38.361Z,103081.61
2019-03-29T02:54:03.007Z,103078.01
2019-03-29T02:54:27.691Z,103081.61
2019-03-29T02:54:52.320Z,103081.67
2019-03-29T02:55:16.980Z,103078.06
2019-03-29T02:55:41.587Z,103080.78
2019-03-29T02:56:06.231Z,103080.78
2019-03-29T02:56:30.857Z,103076.80
2019-03-29T02:56:55.508Z,103074.56
2019-03-29T02:57:20.180Z,103079.92
2019-03-29T02:57:44.795Z,103079.05
2019-03-29T02:58:09.511Z,103079.52
2019-03-29T02:58:34.138Z,103083.59
2019-03-29T02:58:58.862Z,103080.87
2019-03-29T02:59:23.496Z,103079.98
2019-03-29T02:59:48.128Z,103083.17
2019-03-29T03:00:12.809Z,103085.42
2019-03-29T03:00:37.439Z,103087.72
2019-03-29T03:01:02.184Z,103085.47
2019-03-29T03:01:26.839Z,103086.45
2019-03-29T03:01:51.464Z,103084.59
2019-03-29T03:02:16.113Z,103087.72
2019-03-29T03:02:40.783Z,103088.66
2019-03-29T03:03:05.407Z,103085.56
2019-03-29T03:03:30.024Z,103089.22
2019-03-29T03:03:54.708Z,103080.13
2019-03-29T03:04:19.326Z,103080.13
2019-03-29T03:04:43.928Z,103080.61
2019-03-29T03:05:09.903Z,103086.51
2019-03-29T03:05:34.543Z,103080.19
2019-03-29T03:05:59.219Z,103083.38
2019-03-29T03:06:23.835Z,103081.61
2019-03-29T03:06:48.428Z,103077.95
2019-03-29T03:07:13.081Z,103076.17
2019-03-29T03:07:37.845Z,103080.25
2019-03-29T03:08:02.492Z,103074.81
2019-03-29T03:08:27.124Z,103077.15
2019-03-29T03:08:51.740Z,103077.63
2019-03-29T03:09:16.356Z,103076.27
2019-03-29T03:09:40.963Z,103072.66
2019-03-29T03:10:08.013Z,103078.51
2019-03-29T03:10:33.656Z,103083.52
2019-03-29T03:10:58.265Z,103078.09
2019-03-29T03:11:22.907Z,103073.61
2019-03-29T03:11:47.526Z,103079.03
2019-03-29T03:12:12.301Z,103076.32
2019-03-29T03:12:36.936Z,103070.09
2019-03-29T03:13:01.653Z,103083.20
2019-03-29T03:13:26.310Z,103070.16
2019-03-29T03:13:50.919Z,103077.83
2019-03-29T03:14:15.554Z,103070.63
2019-03-29T03:14:40.175Z,103068.80
2019-03-29T03:15:07.445Z,103068.89
2019-03-29T03:15:32.065Z,103074.78
2019-03-29T03:15:56.691Z,103076.61
2019-03-29T03:16:21.442Z,103072.55
2019-03-29T03:16:46.104Z,103078.91
2019-03-29T03:17:10.846Z,103072.59
2019-03-29T03:17:35.512Z,103069.88
2019-03-29T03:18:00.160Z,103073.07
2019-03-29T03:18:24.879Z,103074.42
2019-03-29T03:18:49.504Z,103075.78
2019-03-29T03:19:14.124Z,103074.05
2019-03-29T03:19:38.765Z,103070.45
2019-03-29T03:20:04.869Z,103069.56
2019-03-29T03:20:29.494Z,103071.38
2019-03-29T03:20:54.120Z,103069.56
2019-03-29T03:21:18.762Z,103069.14
2019-03-29T03:21:43.392Z,103069.14
2019-03-29T03:22:08.043Z,103069.61
2019-03-29T03:22:32.680Z,103064.19
2019-03-29T03:22:57.308Z,103067.37
2019-03-29T03:23:21.938Z,103062.83
2019-03-29T03:23:46.595Z,103060.20
2019-03-29T03:24:11.226Z,103065.12
2019-03-29T03:24:35.855Z,103067.37
2019-03-29T03:25:00.506Z,103062.92
2019-03-29T03:25:25.154Z,103061.14
2019-03-29T03:25:49.783Z,103061.14
2019-03-29T03:26:14.400Z,103062.98
2019-03-29T03:26:39.031Z,103062.50
2019-03-29T03:27:03.639Z,103062.98
2019-03-29T03:27:28.293Z,103060.73
2019-03-29T03:27:52.920Z,103056.25
2019-03-29T03:28:17.604Z,103059.43
2019-03-29T03:28:42.371Z,103061.20
2019-03-29T03:29:07.032Z,103060.73
2019-03-29T03:29:31.638Z,103061.67
2019-03-29T03:29:56.479Z,103061.29
2019-03-29T03:30:21.110Z,103059.94
2019-03-29T03:30:45.721Z,103065.83
2019-03-29T03:31:10.338Z,103062.23
2019-03-29T03:31:34.982Z,103057.27
2019-03-29T03:31:59.694Z,103059.99
2019-03-29T03:32:24.387Z,103059.58
2019-03-29T03:32:49.087Z,103058.69
2019-03-29T03:33:13.663Z,103062.29
2019-03-29T03:33:38.571Z,103059.11
2019-03-29T03:34:03.283Z,103060.46
2019-03-29T03:34:27.974Z,103063.27
2019-03-29T03:34:52.624Z,103063.73
2019-03-29T03:35:17.317Z,103061.91
2019-03-29T03:35:41.959Z,103055.59
2019-03-29T03:36:06.697Z,103060.13
2019-03-29T03:36:31.376Z,103063.27
2019-03-29T03:36:55.966Z,103061.02
2019-03-29T03:37:20.631Z,103060.61
2019-03-29T03:37:45.244Z,103056.53
2019-03-29T03:38:09.889Z,103057.00
2019-03-29T03:38:34.477Z,103059.72
2019-03-29T03:38:59.090Z,103054.77
2019-03-29T03:39:31.380Z,103056.12
2019-03-29T03:39:50.189Z,103054.77
2019-03-29T03:40:14.838Z,103051.64
2019-03-29T03:40:39.447Z,103050.28
2019-03-29T03:41:04.062Z,103052.98
2019-03-29T03:41:28.680Z,103052.61
2019-03-29T03:41:53.311Z,103052.61
2019-03-29T03:42:17.941Z,103054.34
2019-03-29T03:42:42.572Z,103055.33
2019-03-29T03:43:07.222Z,103050.84
2019-03-29T03:43:31.856Z,103054.02
2019-03-29T03:43:56.520Z,103058.03
2019-03-29T03:44:21.137Z,103052.66
2019-03-29T03:44:45.756Z,103051.31
2019-03-29T03:45:10.398Z,103051.78
2019-03-29T03:45:35.022Z,103053.22
2019-03-29T03:45:59.664Z,103052.72
2019-03-29T03:46:24.287Z,103059.50
2019-03-29T03:46:48.997Z,103053.28
2019-03-29T03:47:13.626Z,103060.06
2019-03-29T03:47:39.391Z,103055.99
2019-03-29T03:48:04.033Z,103056.94
2019-03-29T03:48:28.724Z,103057.88
2019-03-29T03:48:53.371Z,103054.36
2019-03-29T03:49:17.976Z,103059.23
2019-03-29T03:49:42.593Z,103057.97
2019-03-29T03:50:07.489Z,103057.02
2019-03-29T03:50:42.679Z,103057.88
2019-03-29T03:51:07.313Z,103053.42
2019-03-29T03:51:31.963Z,103056.61
2019-03-29T03:51:56.617Z,103056.13
2019-03-29T03:52:21.304Z,103059.38
2019-03-29T03:52:46.567Z,103054.42
2019-03-29T03:53:11.629Z,103062.09
2019-03-29T03:53:36.244Z,103053.53
2019-03-29T03:54:00.859Z,103056.24
2019-03-29T03:54:25.475Z,103056.24
2019-03-29T03:54:50.185Z,103051.80
2019-03-29T03:55:14.875Z,103054.50
2019-03-29T03:55:40.305Z,103053.16
2019-03-29T03:56:04.986Z,103049.08
2019-03-29T03:56:29.623Z,103050.91
2019-03-29T03:56:54.205Z,103050.02
2019-03-29T03:57:19.286Z,103052.31
2019-03-29T03:57:43.894Z,103054.09
2019-03-29T03:58:09.167Z,103051.44
2019-03-29T03:58:33.843Z,103051.44
2019-03-29T03:58:58.721Z,103054.61
2019-03-29T03:59:25.169Z,103051.91
2019-03-29T03:59:50.108Z,103051.05
2019-03-29T04:00:16.391Z,103053.77
2019-03-29T04:00:50.212Z,103052.88
2019-03-29T04:01:14.933Z,103055.59
2019-03-29T04:01:39.548Z,103052.93
2019-03-29T04:02:04.199Z,103054.70
2019-03-29T04:02:28.825Z,103049.33
2019-03-29T04:02:53.449Z,103049.80
2019-03-29T04:03:18.084Z,103047.59
2019-03-29T04:03:42.713Z,103050.30
2019-03-29T04:04:07.358Z,103049.00
2019-03-29T04:04:31.964Z,103054.38
2019-03-29T04:04:56.618Z,103049.47
2019-03-29T04:05:21.226Z,103049.06
2019-03-29T04:05:45.873Z,103053.08
2019-03-29T04:06:10.478Z,103051.30
2019-03-29T04:06:35.141Z,103052.19
2019-03-29T04:06:59.772Z,103053.13
2019-03-29T04:07:24.379Z,103053.13
2019-03-29T04:07:49.551Z,103051.77
2019-03-29T04:08:14.189Z,103045.96
2019-03-29T04:08:38.815Z,103050.41
2019-03-29T04:09:04.315Z,103049.53
2019-03-29T04:09:28.948Z,103048.67
2019-03-29T04:09:53.569Z,103047.31
2019-03-29T04:10:18.229Z,103045.96
2019-03-29T04:10:42.844Z,103047.31
2019-03-29T04:11:07.589Z,103050.03
2019-03-29T04:11:32.217Z,103045.55
2019-03-29T04:11:56.885Z,103044.19
2019-03-29T04:12:21.517Z,103050.09
2019-03-29T04:12:46.209Z,103049.20
2019-03-29T04:13:10.845Z,103050.14
2019-03-29T04:13:35.477Z,103045.60
2019-03-29T04:14:00.074Z,103051.91
2019-03-29T04:14:24.708Z,103049.20
2019-03-29T04:14:49.329Z,103051.03
2019-03-29T04:15:13.917Z,103051.49
2019-03-29T04:15:38.600Z,103048.78
2019-03-29T04:16:03.213Z,103050.14
2019-03-29T04:16:27.840Z,103051.49
2019-03-29T04:16:52.477Z,103049.76
2019-03-29T04:17:17.136Z,103045.69
2019-03-29T04:17:41.764Z,103044.72
2019-03-29T04:18:06.378Z,103046.95
2019-03-29T04:18:31.022Z,103044.80
2019-03-29T04:18:55.672Z,103045.69
2019-03-29T04:19:20.285Z,103049.76
2019-03-29T04:19:45.098Z,103048.88
2019-03-29T04:20:09.715Z,103043.91
2019-03-29T04:20:34.442Z,103037.13
2019-03-29T04:20:59.084Z,103045.27
2019-03-29T04:21:23.715Z,103042.56
2019-03-29T04:21:48.334Z,103047.98
2019-03-29T04:22:13.607Z,103046.21
2019-03-29T04:22:38.271Z,103046.68
2019-03-29T04:23:02.916Z,103041.26
2019-03-29T04:23:27.732Z,103038.12
2019-03-29T04:23:52.548Z,103041.73
2019-03-29T04:24:17.173Z,103040.37
2019-03-29T04:24:41.812Z,103042.20
2019-03-29T04:25:07.183Z,103044.91
2019-03-29T04:25:31.814Z,103042.70
2019-03-29T04:25:56.429Z,103038.63
2019-03-29T04:26:21.085Z,103039.16
2019-03-29T04:26:45.700Z,103039.58
2019-03-29T04:27:10.336Z,103039.98
2019-03-29T04:27:35.048Z,103040.92
2019-03-29T04:27:59.706Z,103039.98
2019-03-29T04:28:24.452Z,103043.64
2019-03-29T04:29:03.370Z,103040.92
2019-03-29T04:29:15.408Z,103045.47
2019-03-29T04:29:40.059Z,103041.87
2019-03-29T04:30:06.044Z,103043.22
2019-03-29T04:30:30.647Z,103043.22
2019-03-29T04:30:55.265Z,103040.04
2019-03-29T04:31:19.892Z,103045.47
2019-03-29T04:31:44.526Z,103040.98
2019-03-29T04:32:09.133Z,103036.91
2019-03-29T04:32:33.770Z,103036.97
2019-03-29T04:32:58.423Z,103039.63
2019-03-29T04:33:23.125Z,103039.63
2019-03-29T04:33:47.925Z,103043.24
2019-03-29T04:34:13.676Z,103043.24
2019-03-29T04:34:38.285Z,103037.91
2019-03-29T04:35:02.903Z,103037.44
2019-03-29T04:35:27.555Z,103040.62
2019-03-29T04:35:52.171Z,103038.38
2019-03-29T04:36:16.786Z,103041.97
2019-03-29T04:36:41.435Z,103039.27
2019-03-29T04:37:06.012Z,103038.38
2019-03-29T04:37:30.662Z,103042.03
2019-03-29T04:37:55.360Z,103042.91
2019-03-29T04:38:19.967Z,103041.14
2019-03-29T04:38:44.564Z,103038.84
2019-03-29T04:39:09.389Z,103037.96
2019-03-29T04:39:34.003Z,103041.14
2019-03-29T04:40:06.970Z,103041.14
2019-03-29T04:40:25.007Z,103043.85
2019-03-29T04:40:49.675Z,103036.22
2019-03-29T04:41:14.302Z,103034.86
2019-03-29T04:41:38.914Z,103041.64
2019-03-29T04:42:03.555Z,103038.98
2019-03-29T04:42:28.198Z,103040.34
2019-03-29T04:42:52.838Z,103041.23
2019-03-29T04:43:17.447Z,103042.64
2019-03-29T04:43:42.168Z,103043.11
2019-03-29T04:44:06.966Z,103037.21
2019-03-29T04:44:31.628Z,103041.28
2019-03-29T04:44:59.708Z,103041.75
2019-03-29T04:45:22.639Z,103038.66
2019-03-29T04:45:47.271Z,103042.72